Time;durP1;ratioP1;P1;durP2;ratioP2;P2;SDS_P1;SDS_P2;PMS_P1;PMS_P2;Temp;Humidity;BMP_temperature;BMP_pressure;BME280_temperature;BME280_humidity;BME280_pressure;Samples;Min_cycle;Max_cycle;Signal;HPM_P1;HPM_P2
2022/08/18 00:00:34;;;;;;;5.47;4.30;;;;;;;28.31;38.72;99202.25;5132997;27;20049;-43
2022/08/18 00:03:04;;;;;;;5.13;4.10;;;;;;;28.43;38.70;99196.84;5132553;27;20023;-43
2022/08/18 00:05:29;;;;;;;5.10;4.13;;;;;;;28.26;38.99;99197.81;5133375;27;20015;-42
2022/08/18 00:07:55;;;;;;;5.60;4.03;;;;;;;28.14;39.02;99190.34;5133305;27;20358;-43
2022/08/18 00:10:20;;;;;;;8.55;4.45;;;;;;;28.36;38.92;99205.59;5133253;27;20027;-42
2022/08/18 00:12:46;;;;;;;7.38;4.20;;;;;;;28.28;39.31;99207.28;5132427;27;20031;-42
2022/08/18 00:15:14;;;;;;;6.85;4.18;;;;;;;28.25;39.29;99209.88;5133111;27;20375;-42
2022/08/18 00:17:40;;;;;;;6.60;4.03;;;;;;;28.25;39.22;99207.13;5133305;27;20023;-43
2022/08/18 00:20:09;;;;;;;6.57;4.45;;;;;;;28.26;39.31;99209.53;5133353;27;20023;-42
2022/08/18 00:22:36;;;;;;;5.07;4.15;;;;;;;28.11;39.67;99206.63;5132521;27;20018;-42
2022/08/18 00:25:01;;;;;;;6.88;4.38;;;;;;;28.22;39.24;99211.34;5132731;27;20026;-42
2022/08/18 00:27:30;;;;;;;8.38;4.22;;;;;;;28.21;39.44;99203.47;5132317;27;20410;-42
2022/08/18 00:29:57;;;;;;;;;;;;;;;28.22;39.29;99205.09;5132723;27;20094;-42
2022/08/18 00:32:27;;;;;;;5.63;4.18;;;;;;;28.11;39.52;99209.34;5131712;27;19968;-43
2022/08/18 00:34:53;;;;;;;6.72;4.43;;;;;;;28.15;39.29;99211.06;5132414;27;20019;-42
2022/08/18 00:37:18;;;;;;;5.78;4.30;;;;;;;28.17;39.20;99203.34;5132581;27;20019;-43
2022/08/18 00:39:44;;;;;;;5.80;4.28;;;;;;;28.08;39.51;99200.69;5132435;27;20496;-42
2022/08/18 00:42:21;;;;;;;5.40;4.05;;;;;;;28.10;39.58;99196.81;5132151;27;20106;-42
2022/08/18 00:44:46;;;;;;;5.60;3.90;;;;;;;28.05;39.53;99200.56;5131818;27;20044;-44
2022/08/18 00:47:11;;;;;;;9.07;4.55;;;;;;;28.08;39.53;99206.16;5132349;27;20104;-46
2022/08/18 00:49:41;;;;;;;6.40;4.13;;;;;;;28.02;39.70;99201.22;5132229;27;20019;-43
2022/08/18 00:52:08;;;;;;;4.88;4.38;;;;;;;28.08;39.89;99205.34;5132424;27;20015;-43
2022/08/18 00:54:36;;;;;;;7.50;4.32;;;;;;;27.90;40.01;99209.34;5131767;27;20022;-46
2022/08/18 00:57:05;;;;;;;4.82;4.10;;;;;;;28.00;39.83;99207.00;5132369;27;20038;-44
2022/08/18 00:59:34;;;;;;;;;;;;;;;27.93;40.10;99204.03;5132752;27;20359;-45
2022/08/18 01:02:04;;;;;;;7.90;4.40;;;;;;;28.06;39.74;99211.16;5131971;27;20356;-44
2022/08/18 01:04:34;;;;;;;7.03;4.45;;;;;;;27.81;40.03;99212.09;5131850;27;20033;-46
2022/08/18 01:07:06;;;;;;;6.63;4.38;;;;;;;27.79;40.12;99211.63;5131961;27;20404;-42
2022/08/18 01:09:31;;;;;;;8.35;4.60;;;;;;;27.76;40.38;99206.81;5132060;27;20035;-45
2022/08/18 01:11:57;;;;;;;5.30;4.28;;;;;;;27.87;39.78;99205.28;5132176;27;20091;-44
2022/08/18 01:14:22;;;;;;;4.70;4.05;;;;;;;27.90;39.79;99212.88;5131820;27;20019;-43
2022/08/18 01:22:29;;;;;;;5.18;4.15;;;;;;;27.83;39.57;99213.34;5131912;27;20062;-43
2022/08/18 01:27:41;;;;;;;5.22;4.20;;;;;;;28.03;39.30;99214.56;5131803;27;20163;-44
2022/08/18 01:30:11;;;;;;;6.22;3.92;;;;;;;27.90;39.65;99212.88;5131372;27;20046;-45
2022/08/18 01:32:38;;;;;;;5.30;4.25;;;;;;;28.00;39.23;99209.72;5131437;27;20055;-44
2022/08/18 01:35:07;;;;;;;6.65;4.25;;;;;;;28.04;39.17;99215.34;5131648;27;20062;-44
2022/08/18 01:37:34;;;;;;;5.93;4.20;;;;;;;27.94;39.20;99207.53;5131220;27;20068;-43
2022/08/18 01:40:04;;;;;;;4.70;4.30;;;;;;;27.93;39.49;99217.69;5131752;27;20414;-41
2022/08/18 01:42:29;;;;;;;6.53;4.30;;;;;;;27.93;39.26;99214.13;5131325;27;20479;-42
2022/08/18 01:44:55;;;;;;;4.65;4.25;;;;;;;28.05;39.07;99211.50;5131280;27;20048;-43
2022/08/18 01:47:21;;;;;;;7.40;4.18;;;;;;;28.07;39.11;99210.00;5131250;27;20356;-42
2022/08/18 01:49:46;;;;;;;5.28;4.35;;;;;;;28.05;38.92;99206.81;5131373;27;20038;-43
2022/08/18 01:52:20;;;;;;;8.30;4.32;;;;;;;28.10;38.81;99208.53;5131460;27;20082;-42
2022/08/18 01:54:47;;;;;;;7.45;4.15;;;;;;;28.03;38.86;99209.09;5131496;27;20106;-42
2022/08/18 01:57:14;;;;;;;5.60;4.50;;;;;;;28.16;38.48;99217.34;5131279;27;20438;-42
2022/08/18 01:59:41;;;;;;;5.57;4.10;;;;;;;28.04;38.85;99209.88;5131641;27;20034;-43
2022/08/18 02:02:08;;;;;;;7.38;4.40;;;;;;;28.07;38.90;99215.47;5131065;27;20054;-42
2022/08/18 02:04:35;;;;;;;6.68;4.13;;;;;;;28.03;39.13;99213.75;5134387;27;20019;-42
2022/08/18 02:07:02;;;;;;;9.55;4.43;;;;;;;27.96;39.16;99208.81;5135315;27;20639;-42
2022/08/18 02:09:28;;;;;;;5.95;4.60;;;;;;;27.84;39.47;99205.97;5135196;27;20050;-45
2022/08/18 02:11:55;;;;;;;5.72;4.25;;;;;;;27.97;38.97;99204.94;5135544;27;20045;-42
2022/08/18 02:14:20;;;;;;;8.38;4.50;;;;;;;27.99;38.89;99207.38;5135266;27;20566;-42
2022/08/18 02:16:46;;;;;;;8.27;4.20;;;;;;;27.77;38.98;99181.88;5135298;27;20031;-42
2022/08/18 02:19:11;;;;;;;6.10;4.35;;;;;;;28.02;38.84;99206.69;5134970;27;20513;-43
2022/08/18 02:21:37;;;;;;;7.05;4.50;;;;;;;27.96;38.93;99214.28;5135001;27;20015;-42
2022/08/18 02:24:04;;;;;;;5.15;4.47;;;;;;;27.93;38.92;99214.97;5134888;27;20493;-42
2022/08/18 02:26:29;;;;;;;5.43;4.20;;;;;;;27.93;38.83;99214.97;5135165;27;20108;-41
2022/08/18 02:28:55;;;;;;;6.05;4.32;;;;;;;28.13;38.73;99209.81;5135146;27;20342;-45
2022/08/18 02:31:23;;;;;;;6.05;4.35;;;;;;;28.15;38.63;99210.28;5134690;27;20054;-44
2022/08/18 02:33:50;;;;;;;6.10;4.60;;;;;;;28.06;38.79;99205.69;5135107;27;20023;-43
2022/08/18 02:36:16;;;;;;;4.82;4.30;;;;;;;27.89;39.27;99203.06;5135095;27;20029;-43
2022/08/18 02:38:42;;;;;;;6.28;4.40;;;;;;;27.95;38.99;99196.28;5135249;27;20154;-44
2022/08/18 02:41:10;;;;;;;6.97;4.25;;;;;;;27.91;39.10;99195.31;5134650;27;20027;-44
2022/08/18 02:43:37;;;;;;;5.40;4.53;;;;;;;27.78;39.51;99201.81;5134656;27;20019;-43
2022/08/18 02:46:05;;;;;;;8.25;4.70;;;;;;;27.62;39.93;99207.84;5135210;27;20023;-44
2022/08/18 02:48:34;;;;;;;5.78;4.45;;;;;;;27.56;40.17;99201.00;5134736;27;20029;-46
2022/08/18 02:51:05;;;;;;;7.40;4.28;;;;;;;27.73;39.89;99212.97;5134317;27;20016;-43
2022/08/18 02:53:31;;;;;;;6.88;4.60;;;;;;;27.64;40.00;99208.31;5134601;27;20027;-42
2022/08/18 02:56:23;;;;;;;8.68;4.60;;;;;;;27.66;39.89;99208.81;5135030;27;20019;-41
2022/08/18 02:58:54;;;;;;;5.28;4.43;;;;;;;27.70;39.76;99211.66;5134890;27;20031;-42
2022/08/18 03:01:23;;;;;;;6.57;4.50;;;;;;;27.73;39.67;99202.81;5134589;27;20016;-42
2022/08/18 03:03:49;;;;;;;5.35;4.70;;;;;;;27.75;39.67;99213.44;5134157;27;20025;-43
2022/08/18 03:06:16;;;;;;;8.20;4.22;;;;;;;27.73;39.75;99219.22;5134304;27;20102;-43
2022/08/18 03:08:42;;;;;;;8.52;4.70;;;;;;;27.67;39.74;99218.59;5134613;27;20030;-43
2022/08/18 03:11:07;;;;;;;8.35;4.57;;;;;;;27.63;39.79;99212.22;5134318;27;20019;-43
2022/08/18 03:13:33;;;;;;;6.38;4.70;;;;;;;27.40;40.01;99216.34;5133783;27;20279;-42
2022/08/18 03:15:58;;;;;;;5.18;4.18;;;;;;;27.50;39.75;99221.44;5134187;27;20113;-42
2022/08/18 03:18:24;;;;;;;5.32;4.10;;;;;;;27.76;39.19;99215.00;5134115;27;20416;-42
2022/08/18 03:20:49;;;;;;;6.60;4.35;;;;;;;27.85;39.01;99222.06;5133974;27;20102;-42
2022/08/18 03:23:16;;;;;;;7.45;4.60;;;;;;;27.86;38.98;99220.91;5133103;27;20023;-42
2022/08/18 03:25:44;;;;;;;4.80;4.28;;;;;;;27.80;39.09;99218.72;5133685;27;20103;-42
2022/08/18 03:28:09;;;;;;;5.22;4.15;;;;;;;27.74;39.17;99220.00;5134410;27;20027;-41
2022/08/18 03:30:35;;;;;;;6.47;4.43;;;;;;;27.82;39.17;99219.97;5133817;27;20478;-42
2022/08/18 03:33:00;;;;;;;11.88;4.63;;;;;;;27.87;39.31;99224.44;5133476;27;20043;-42
2022/08/18 03:35:26;;;;;;;7.25;4.45;;;;;;;28.02;38.73;99217.63;5133297;27;20135;-43
2022/08/18 03:37:52;;;;;;;7.75;5.97;;;;;;;27.99;38.72;99219.09;5133740;27;20152;-43
2022/08/18 03:40:17;;;;;;;7.88;4.82;;;;;;;27.91;39.14;99227.34;5133829;27;20022;-41
2022/08/18 03:42:43;;;;;;;24.92;18.77;;;;;;;27.99;38.82;99226.50;5133595;27;20103;-42
2022/08/18 03:45:08;;;;;;;7.00;4.65;;;;;;;27.91;39.06;99221.88;5133389;27;20087;-41
2022/08/18 03:47:34;;;;;;;6.28;4.72;;;;;;;27.97;38.80;99217.81;5133360;27;20144;-43
2022/08/18 03:49:59;;;;;;;5.47;4.22;;;;;;;28.13;38.64;99218.03;5122601;27;20031;-45
2022/08/18 03:52:25;;;;;;;9.18;4.72;;;;;;;28.18;38.43;99236.94;5112823;28;20024;-43
2022/08/18 03:54:51;;;;;;;6.70;4.40;;;;;;;28.05;38.61;99225.16;5112758;28;20102;-45
2022/08/18 03:57:17;;;;;;;5.63;4.53;;;;;;;28.06;38.60;99230.31;5112520;28;20023;-42
2022/08/18 03:59:42;;;;;;;5.50;4.57;;;;;;;28.23;38.25;99223.88;5112415;28;20455;-44
2022/08/18 04:02:09;;;;;;;7.55;4.95;;;;;;;28.07;38.55;99233.84;5112560;28;20069;-43
2022/08/18 04:04:35;;;;;;;9.25;5.68;;;;;;;28.04;38.62;99231.75;5112053;28;20034;-42
2022/08/18 04:07:06;;;;;;;11.70;8.20;;;;;;;28.38;38.40;99235.34;5110706;28;20499;-41
2022/08/18 04:09:33;;;;;;;12.00;10.70;;;;;;;28.57;37.71;99234.91;5109705;28;20466;-43
2022/08/18 04:12:11;;;;;;;11.93;6.22;;;;;;;28.65;37.78;99234.00;5110705;28;20028;-44
2022/08/18 04:14:37;;;;;;;12.95;6.00;;;;;;;28.83;37.68;99229.19;5110111;27;20012;-44
2022/08/18 04:17:03;;;;;;;8.13;4.90;;;;;;;28.86;37.41;99233.97;5109764;28;20368;-45
2022/08/18 04:19:29;;;;;;;8.55;4.72;;;;;;;29.03;37.26;99232.97;5110314;28;20016;-45
2022/08/18 04:21:56;;;;;;;8.18;5.60;;;;;;;29.02;37.02;99237.66;5120883;27;20011;-44
2022/08/18 04:24:22;;;;;;;8.48;4.32;;;;;;;29.26;36.85;99244.34;5132931;27;20015;-43
2022/08/18 04:26:48;;;;;;;7.38;4.45;;;;;;;29.59;36.49;99238.00;5131951;27;20106;-44
2022/08/18 04:29:16;;;;;;;8.20;4.65;;;;;;;29.75;35.73;99251.81;5132823;27;20098;-45
2022/08/18 04:31:42;;;;;;;7.20;4.28;;;;;;;29.75;36.06;99254.56;5132191;27;20058;-43
2022/08/18 04:34:08;;;;;;;11.07;4.40;;;;;;;30.06;35.50;99255.91;5132289;27;20039;-44
2022/08/18 04:36:35;;;;;;;6.95;4.30;;;;;;;30.25;34.88;99260.78;5132257;27;20094;-43
2022/08/18 04:39:02;;;;;;;11.55;4.63;;;;;;;30.43;34.71;99264.06;5131896;27;20019;-43
2022/08/18 04:41:28;;;;;;;6.78;4.63;;;;;;;30.50;34.86;99258.78;5131937;27;20023;-44
2022/08/18 04:43:58;;;;;;;6.82;4.78;;;;;;;30.64;34.56;99259.19;5131575;27;20107;-42
2022/08/18 04:46:25;;;;;;;7.90;4.28;;;;;;;30.90;33.65;99261.50;5132295;27;20106;-45
2022/08/18 04:48:51;;;;;;;9.60;4.50;;;;;;;30.86;33.89;99259.75;5131435;27;20398;-43
2022/08/18 04:51:19;;;;;;;5.68;4.00;;;;;;;31.05;33.74;99256.38;5132016;27;20102;-43
2022/08/18 04:53:46;;;;;;;8.80;4.15;;;;;;;30.80;33.56;99259.22;5133686;27;20023;-45
2022/08/18 04:56:29;;;;;;;9.27;4.35;;;;;;;30.78;33.92;99269.75;5130026;27;20073;-44
2022/08/18 04:59:00;;;;;;;5.43;3.90;;;;;;;31.15;33.76;99264.91;5131258;27;20049;-43
2022/08/18 05:01:28;;;;;;;6.85;6.07;;;;;;;31.29;33.47;99263.66;5131211;27;20382;-43
2022/08/18 05:03:56;;;;;;;5.95;4.07;;;;;;;31.80;32.48;99255.50;5131262;27;20106;-44
2022/08/18 05:06:24;;;;;;;6.57;4.32;;;;;;;32.01;32.17;99257.16;5131519;27;20019;-44
2022/08/18 05:08:53;;;;;;;14.43;11.13;;;;;;;32.42;31.62;99260.38;5131367;27;20018;-42
2022/08/18 05:11:19;;;;;;;;;;;;;;;31.94;32.27;99258.56;5139221;27;20106;-42
2022/08/18 05:13:44;;;;;;;7.57;5.03;;;;;;;32.25;31.78;99264.34;5151973;27;20378;-43
2022/08/18 05:16:09;;;;;;;8.20;5.50;;;;;;;32.63;31.38;99258.06;5152888;27;20503;-46
2022/08/18 05:18:39;;;;;;;5.05;3.78;;;;;;;32.78;30.83;99258.38;5150374;27;20554;-46
2022/08/18 05:21:06;;;;;;;7.70;4.00;;;;;;;33.26;30.43;99267.13;5148992;27;20029;-44
2022/08/18 05:23:31;;;;;;;4.13;3.67;;;;;;;33.23;30.59;99262.38;5131202;27;20046;-44
2022/08/18 05:26:04;;;;;;;6.43;4.22;;;;;;;33.23;30.60;99260.41;5131382;27;20478;-43
2022/08/18 05:28:30;;;;;;;5.93;4.03;;;;;;;33.46;30.19;99254.88;5131898;27;20046;-42
2022/08/18 05:30:56;;;;;;;8.95;4.13;;;;;;;33.38;30.16;99260.66;5130643;27;20054;-43
2022/08/18 05:33:23;;;;;;;8.00;4.10;;;;;;;33.19;30.51;99265.06;5130590;27;20070;-45
2022/08/18 05:36:04;;;;;;;8.38;4.20;;;;;;;33.49;30.02;99262.41;5131149;27;20015;-43
2022/08/18 05:38:58;;;;;;;8.15;4.28;;;;;;;33.66;29.89;99271.34;5130110;27;20019;-45
2022/08/18 05:41:32;;;;;;;5.60;3.80;;;;;;;34.19;29.06;99263.06;5130938;27;20106;-43
2022/08/18 05:43:59;;;;;;;5.88;3.72;;;;;;;34.12;29.43;99259.38;5129338;27;20118;-43
2022/08/18 05:46:37;;;;;;;9.23;4.20;;;;;;;34.13;28.94;99263.75;5130823;27;20084;-42
2022/08/18 05:49:03;;;;;;;8.10;4.30;;;;;;;34.40;28.48;99259.78;5131234;27;20261;-45
2022/08/18 05:51:39;;;;;;;8.60;4.13;;;;;;;34.35;28.49;99256.56;5130909;27;20041;-45
2022/08/18 05:56:53;;;;;;;7.28;3.92;;;;;;;34.45;28.39;99262.22;5131330;27;20077;-42
2022/08/18 05:59:27;;;;;;;8.48;4.05;;;;;;;34.04;29.09;99262.06;5130997;27;20030;-44
2022/08/18 06:01:59;;;;;;;5.95;4.00;;;;;;;35.15;28.15;99264.56;5130979;27;20051;-44
2022/08/18 06:04:39;;;;;;;8.57;4.10;;;;;;;35.00;27.93;99258.09;5130367;27;20035;-43
2022/08/18 06:07:10;;;;;;;8.05;4.00;;;;;;;35.12;27.64;99262.56;5131131;27;20138;-43
2022/08/18 06:09:56;;;;;;;6.65;3.78;;;;;;;34.74;28.39;99262.56;5130805;27;20031;-44
2022/08/18 06:12:26;;;;;;;6.72;3.95;;;;;;;34.74;28.16;99268.09;5130867;27;20043;-44
2022/08/18 06:15:14;;;;;;;6.72;3.88;;;;;;;35.07;27.77;99251.84;5130840;27;20031;-45
2022/08/18 06:17:54;;;;;;;8.07;4.30;;;;;;;35.57;27.04;99269.69;5130830;27;20103;-44
2022/08/18 06:20:44;;;;;;;5.60;3.92;;;;;;;35.95;26.61;99272.34;5131271;27;20405;-41
2022/08/18 06:23:45;;;;;;;7.93;4.28;;;;;;;36.44;26.37;99273.00;5130283;28;20106;-45
2022/08/18 06:26:28;;;;;;;10.35;4.20;;;;;;;36.02;26.55;99280.66;5086871;27;20036;-43
2022/08/18 06:29:33;;;;;;;9.43;4.38;;;;;;;36.03;26.59;99273.97;5131309;27;20027;-44
2022/08/18 06:32:13;;;;;;;7.95;4.10;;;;;;;36.67;25.92;99279.06;5119799;28;20388;-41
2022/08/18 06:35:08;;;;;;;12.13;4.50;;;;;;;37.19;25.44;99276.00;5129605;27;20027;-44
2022/08/18 06:40:28;;;;;;;7.57;4.07;;;;;;;36.10;26.48;99278.72;5150834;27;20111;-43
2022/08/18 06:42:54;;;;;;;5.78;3.90;;;;;;;36.39;26.01;99277.72;5149352;27;20046;-44
2022/08/18 06:45:27;;;;;;;9.00;3.88;;;;;;;36.55;26.13;99268.28;5151266;27;20030;-45
2022/08/18 06:48:11;;;;;;;10.60;4.20;;;;;;;36.50;26.32;99271.44;5150638;27;20174;-44
2022/08/18 06:50:56;;;;;;;5.78;4.18;;;;;;;36.25;26.48;99287.94;5154147;27;20026;-44
2022/08/18 06:53:42;;;;;;;11.20;4.70;;;;;;;36.55;25.78;99276.59;5152882;27;20027;-46
2022/08/18 06:56:30;;;;;;;7.32;3.92;;;;;;;37.25;25.27;99277.19;5152621;27;20362;-46
2022/08/18 06:59:29;;;;;;;15.30;4.17;;;;;;;36.89;25.21;99282.66;5153198;27;20147;-44
2022/08/18 07:02:22;;;;;;;6.75;3.90;;;;;;;36.81;25.75;99275.53;5153285;27;20023;-46
2022/08/18 07:05:07;;;;;;;8.23;4.25;;;;;;;37.65;24.66;99275.22;5152723;27;20019;-46
2022/08/18 07:07:35;;;;;;;5.88;3.80;;;;;;;37.60;25.14;99278.38;5152863;27;20019;-45
2022/08/18 07:10:05;;;;;;;7.68;4.10;;;;;;;38.01;24.42;99277.94;5153748;27;20061;-44
2022/08/18 07:12:31;;;;;;;7.35;4.07;;;;;;;37.13;25.75;99272.03;5154212;27;20126;-44
2022/08/18 07:15:00;;;;;;;4.57;3.85;;;;;;;37.45;25.14;99272.06;5153986;27;20022;-45
2022/08/18 07:17:32;;;;;;;6.28;4.10;;;;;;;38.00;24.39;99272.78;5153613;27;20031;-44
2022/08/18 07:19:57;;;;;;;7.00;4.00;;;;;;;38.21;24.42;99271.97;5154634;27;20023;-43
2022/08/18 07:22:23;;;;;;;4.38;3.97;;;;;;;38.22;24.39;99265.22;5140592;27;20083;-45
2022/08/18 07:24:53;;;;;;;5.05;3.85;;;;;;;38.36;24.45;99272.69;5133556;27;20023;-44
2022/08/18 07:27:40;;;;;;;8.98;3.90;;;;;;;38.41;24.52;99270.28;5133448;27;20030;-47
2022/08/18 07:30:28;;;;;;;6.00;3.65;;;;;;;39.23;23.23;99277.41;5132987;27;20042;-46
2022/08/18 07:33:04;;;;;;;7.43;4.13;;;;;;;38.76;24.12;99274.09;5132656;27;20138;-44
2022/08/18 07:35:42;;;;;;;6.55;3.67;;;;;;;38.68;23.65;99272.56;5133131;27;20031;-47
2022/08/18 07:38:18;;;;;;;6.47;3.72;;;;;;;38.99;23.67;99270.00;5132878;27;20054;-45
2022/08/18 07:40:59;;;;;;;5.25;3.72;;;;;;;38.11;24.24;99270.81;5133279;27;20105;-46
2022/08/18 07:43:36;;;;;;;6.90;3.53;;;;;;;38.25;23.94;99261.63;5133086;27;20122;-46
2022/08/18 07:46:25;;;;;;;6.85;3.92;;;;;;;38.40;24.03;99268.69;5133804;27;20055;-46
2022/08/18 07:48:51;;;;;;;11.38;4.10;;;;;;;38.18;24.70;99273.56;5132858;27;20497;-43
2022/08/18 07:51:28;;;;;;;8.15;3.72;;;;;;;38.79;23.98;99262.19;5132653;27;20023;-44
2022/08/18 07:54:01;;;;;;;6.55;3.60;;;;;;;39.41;22.88;99268.09;5132830;27;20102;-42
2022/08/18 07:56:38;;;;;;;7.88;3.88;;;;;;;39.69;23.30;99265.06;5132834;27;20442;-46
2022/08/18 07:59:28;;;;;;;7.47;3.67;;;;;;;39.44;23.28;99264.53;5133121;27;20393;-44
2022/08/18 08:02:27;;;;;;;4.15;3.53;;;;;;;39.16;23.76;99260.75;5131753;27;20360;-44
2022/08/18 08:04:56;;;;;;;8.68;3.60;;;;;;;39.31;23.66;99261.44;5132428;27;20031;-47
2022/08/18 08:07:29;;;;;;;6.15;3.70;;;;;;;39.47;23.37;99255.34;5132775;27;20023;-45
2022/08/18 08:10:40;;;;;;;7.18;3.72;;;;;;;39.29;23.67;99252.72;5132672;27;20027;-43
2022/08/18 08:13:36;;;;;;;6.88;3.35;;;;;;;38.91;23.70;99250.56;5097643;27;20035;-42
2022/08/18 08:16:02;;;;;;;4.25;3.53;;;;;;;38.74;23.68;99239.56;5123780;27;20035;-45
2022/08/18 08:18:43;;;;;;;7.57;3.70;;;;;;;39.39;23.11;99243.47;5132251;27;20479;-46
2022/08/18 08:21:14;;;;;;;4.43;3.80;;;;;;;40.18;22.49;99248.28;5132120;27;20398;-44
2022/08/18 08:23:49;;;;;;;6.43;3.90;;;;;;;39.63;21.92;99233.34;5131792;27;20448;-42
2022/08/18 08:26:30;;;;;;;5.90;3.30;;;;;;;38.79;22.70;99228.81;5132586;27;20062;-44
2022/08/18 08:29:48;;;;;;;3.88;3.40;;;;;;;38.72;22.25;99240.75;5139497;27;20022;-45
2022/08/18 08:32:27;;;;;;;7.25;3.30;;;;;;;39.39;21.63;99237.13;5097648;27;20079;-45
2022/08/18 08:35:03;;;;;;;4.93;3.25;;;;;;;39.33;22.00;99238.75;5145625;27;20467;-43
2022/08/18 08:37:41;;;;;;;8.77;4.20;;;;;;;39.69;21.61;99242.81;5130590;27;20056;-46
2022/08/18 08:40:17;;;;;;;5.65;3.40;;;;;;;39.33;21.11;99244.34;5129933;27;20039;-44
2022/08/18 08:42:57;;;;;;;6.45;3.22;;;;;;;39.31;21.53;99239.19;5131640;27;20110;-46
2022/08/18 08:45:28;;;;;;;8.10;3.55;;;;;;;39.91;21.21;99236.25;5130405;27;20023;-44
2022/08/18 08:48:20;;;;;;;5.00;3.22;;;;;;;39.73;20.63;99236.44;5129123;27;20390;-41
2022/08/18 08:50:56;;;;;;;9.27;3.53;;;;;;;39.22;20.76;99233.28;5131784;27;20039;-37
2022/08/18 08:53:26;;;;;;;7.20;3.38;;;;;;;38.77;21.39;99224.88;5132281;27;20097;-37
2022/08/18 08:55:58;;;;;;;6.40;3.05;;;;;;;38.56;21.52;99218.25;5131699;27;20023;-37
2022/08/18 08:58:36;;;;;;;5.57;3.20;;;;;;;39.11;21.01;99227.84;5132096;27;20038;-37
2022/08/18 09:01:03;;;;;;;4.97;3.38;;;;;;;39.62;19.76;99229.00;5131453;27;20019;-37
2022/08/18 09:03:52;;;;;;;4.32;3.28;;;;;;;39.94;19.60;99222.28;5131888;27;20035;-37
2022/08/18 09:06:35;;;;;;;4.03;3.20;;;;;;;40.26;19.63;99230.25;5131881;27;20102;-45
2022/08/18 09:09:10;;;;;;;5.07;3.35;;;;;;;40.09;20.14;99227.69;5132034;27;20019;-44
2022/08/18 09:11:41;;;;;;;7.93;3.28;;;;;;;39.92;19.82;99230.28;5132183;27;20119;-44
2022/08/18 09:14:25;;;;;;;7.00;3.33;;;;;;;39.18;20.36;99221.41;5131604;27;20053;-44
2022/08/18 09:17:09;;;;;;;4.00;3.03;;;;;;;39.93;19.26;99211.56;5131613;27;20019;-45
2022/08/18 09:20:00;;;;;;;4.63;3.22;;;;;;;40.42;19.19;99215.75;5131895;27;20037;-44
2022/08/18 09:22:51;;;;;;;7.00;3.03;;;;;;;41.09;18.54;99198.44;5130371;27;20036;-44
2022/08/18 09:25:52;;;;;;;7.47;3.42;;;;;;;40.87;18.86;99205.56;5129111;27;20019;-43
2022/08/18 09:28:19;;;;;;;4.57;3.10;;;;;;;40.38;18.86;99206.63;5129912;27;20042;-44
2022/08/18 09:31:05;;;;;;;3.53;3.17;;;;;;;40.48;18.13;99198.53;5131816;27;20034;-44
2022/08/18 09:33:40;;;;;;;3.65;3.28;;;;;;;40.32;19.40;99208.28;5131596;27;20126;-44
2022/08/18 09:36:27;;;;;;;3.85;3.20;;;;;;;40.57;18.87;99198.81;5131273;27;20026;-45
2022/08/18 09:42:36;;;;;;;7.50;3.53;;;;;;;40.70;19.01;99197.03;5130813;27;20168;-45
2022/08/18 09:45:08;;;;;;;10.38;4.35;;;;;;;39.94;19.71;99204.78;5132068;27;20477;-47
2022/08/18 09:47:33;;;;;;;6.53;3.33;;;;;;;40.08;19.57;99201.84;5131488;27;20031;-44
2022/08/18 09:50:05;;;;;;;4.32;3.50;;;;;;;40.25;19.33;99200.81;5131820;27;20019;-43
2022/08/18 09:52:33;;;;;;;5.97;3.85;;;;;;;40.28;20.12;99201.97;5131075;27;20019;-47
2022/08/18 09:54:58;;;;;;;6.22;3.58;;;;;;;40.54;19.62;99189.31;5130838;27;20045;-43
2022/08/18 09:57:30;;;;;;;4.68;3.20;;;;;;;40.12;20.28;99188.66;5130976;27;20031;-45
2022/08/18 10:00:15;;;;;;;4.97;3.50;;;;;;;39.96;20.48;99183.66;5130816;27;20030;-47
2022/08/18 10:02:41;;;;;;;5.47;3.65;;;;;;;39.85;20.61;99189.34;5130956;27;20075;-45
2022/08/18 10:05:21;;;;;;;7.00;3.50;;;;;;;39.83;20.24;99183.41;5131086;27;20121;-46
2022/08/18 10:08:00;;;;;;;4.22;3.42;;;;;;;40.52;19.55;99176.97;5130943;27;20038;-44
2022/08/18 10:10:49;;;;;;;5.53;3.40;;;;;;;40.10;20.15;99179.94;5131082;27;20027;-47
2022/08/18 10:13:33;;;;;;;;;;;;;;;39.75;20.96;99181.91;5131239;27;20113;-43
2022/08/18 10:16:25;;;;;;;5.57;3.63;;;;;;;40.21;19.95;99175.00;5131117;28;20010;-45
2022/08/18 10:18:56;;;;;;;6.13;3.35;;;;;;;40.38;19.65;99169.63;5098023;27;20618;-43
2022/08/18 10:21:27;;;;;;;4.80;3.33;;;;;;;40.28;20.11;99167.75;5130678;27;20099;-47
2022/08/18 10:24:03;;;;;;;6.90;3.67;;;;;;;39.95;20.29;99162.59;5130436;27;20023;-46
2022/08/18 10:26:28;;;;;;;6.88;3.65;;;;;;;39.68;21.05;99174.44;5135017;27;20027;-43
2022/08/18 10:29:26;;;;;;;5.55;3.45;;;;;;;39.69;20.66;99172.44;5119621;27;20043;-47
2022/08/18 10:31:58;;;;;;;4.25;3.38;;;;;;;40.11;20.72;99159.22;5116546;27;20104;-42
2022/08/18 10:34:38;;;;;;;4.78;3.88;;;;;;;40.22;20.49;99165.44;5135701;27;20075;-44
2022/08/18 10:37:26;;;;;;;4.82;3.28;;;;;;;40.21;20.47;99171.41;5125791;27;20119;-44
2022/08/18 10:40:12;;;;;;;4.97;3.33;;;;;;;40.85;19.87;99155.78;5113335;28;20378;-44
2022/08/18 10:42:43;;;;;;;4.78;3.70;;;;;;;40.68;19.66;99154.06;5130425;27;20202;-45
2022/08/18 10:45:32;;;;;;;7.05;3.60;;;;;;;39.75;20.84;99153.28;5116382;27;20031;-44
2022/08/18 10:48:03;;;;;;;5.10;3.55;;;;;;;39.88;20.07;99160.69;5106703;28;20035;-46
2022/08/18 10:50:37;;;;;;;4.55;3.58;;;;;;;40.03;20.40;99164.09;5114097;28;20031;-45
2022/08/18 10:53:24;;;;;;;6.80;3.50;;;;;;;40.37;19.64;99154.91;5114159;28;20051;-45
2022/08/18 10:56:02;;;;;;;4.25;3.80;;;;;;;40.72;19.43;99158.34;5113671;28;20023;-45
2022/08/18 10:58:42;;;;;;;5.50;3.30;;;;;;;40.01;19.70;99149.00;5114419;28;20104;-45
2022/08/18 11:01:31;;;;;;;7.18;3.53;;;;;;;39.75;20.24;99151.28;5127191;27;20044;-46
2022/08/18 11:04:02;;;;;;;4.47;3.60;;;;;;;40.03;20.41;99157.75;5134090;27;20467;-45
2022/08/18 11:06:35;;;;;;;4.45;3.50;;;;;;;40.58;19.17;99147.44;5134589;27;20031;-37
2022/08/18 11:09:01;;;;;;;5.25;3.47;;;;;;;40.48;19.11;99132.47;5134645;27;20023;-37
2022/08/18 11:11:42;;;;;;;9.88;3.88;;;;;;;40.72;18.86;99149.97;5134580;27;20022;-37
2022/08/18 11:14:11;;;;;;;8.38;3.25;;;;;;;40.73;18.85;99148.78;5134449;27;20026;-37
2022/08/18 11:16:42;;;;;;;5.70;3.30;;;;;;;40.47;18.55;99139.22;5134409;27;20023;-37
2022/08/18 11:19:13;;;;;;;6.18;3.30;;;;;;;40.64;18.85;99129.78;5134861;27;20026;-36
2022/08/18 11:21:40;;;;;;;4.78;3.45;;;;;;;40.84;19.01;99129.91;5134551;27;20035;-36
2022/08/18 11:24:16;;;;;;;5.07;3.53;;;;;;;40.99;18.68;99124.88;5134113;27;20087;-36
2022/08/18 11:27:15;;;;;;;4.25;3.17;;;;;;;40.98;18.65;99126.09;5134993;27;20031;-37
2022/08/18 11:29:41;;;;;;;4.80;3.40;;;;;;;41.13;18.95;99126.63;5129373;27;20422;-37
2022/08/18 11:32:06;;;;;;;4.72;3.60;;;;;;;40.89;19.29;99122.25;5133950;27;20046;-37
2022/08/18 11:34:39;;;;;;;4.28;3.65;;;;;;;40.93;19.52;99106.25;5133677;27;20409;-38
2022/08/18 11:37:18;;;;;;;6.50;3.90;;;;;;;41.01;19.26;99116.06;5133167;27;20063;-36
2022/08/18 11:39:48;;;;;;;6.03;3.50;;;;;;;41.29;18.66;99114.00;5134446;27;20019;-37
2022/08/18 11:42:16;;;;;;;4.32;3.50;;;;;;;41.29;19.01;99100.84;5133926;27;20413;-38
2022/08/18 11:44:42;;;;;;;5.65;3.58;;;;;;;41.30;18.56;99108.00;5133903;27;20023;-38
2022/08/18 11:47:12;;;;;;;6.72;3.35;;;;;;;41.34;18.76;99107.94;5133628;27;20080;-38
2022/08/18 11:50:08;;;;;;;4.95;3.45;;;;;;;40.97;19.56;99104.97;5133885;27;20398;-37
2022/08/18 11:52:47;;;;;;;5.05;3.60;;;;;;;40.82;19.46;99107.25;5133887;27;20470;-37
2022/08/18 11:55:29;;;;;;;6.93;3.67;;;;;;;40.81;19.07;99102.09;5133806;27;20159;-37
2022/08/18 11:57:56;;;;;;;3.83;3.35;;;;;;;41.17;18.94;99093.06;5134223;27;20038;-37
2022/08/18 12:00:40;;;;;;;3.90;3.50;;;;;;;41.45;18.87;99080.59;5133295;27;20035;-35
2022/08/18 12:03:18;;;;;;;4.80;3.60;;;;;;;41.41;18.60;99085.44;5133871;27;20098;-36
2022/08/18 12:05:52;;;;;;;6.28;3.85;;;;;;;41.39;18.61;99080.31;5133290;27;20023;-37
2022/08/18 12:08:23;;;;;;;4.15;3.70;;;;;;;41.22;18.76;99070.25;5133962;27;20174;-37
2022/08/18 12:10:48;;;;;;;7.00;3.95;;;;;;;41.20;19.14;99089.44;5133689;27;20034;-37
2022/08/18 12:13:23;;;;;;;5.07;3.63;;;;;;;41.63;18.82;99076.69;5133308;27;20023;-36
2022/08/18 12:16:07;;;;;;;8.73;3.72;;;;;;;41.54;17.92;99072.41;5133766;27;20015;-36
2022/08/18 12:18:32;;;;;;;5.63;3.70;;;;;;;41.13;18.49;99084.00;5132995;27;20030;-37